Time;durP1;ratioP1;P1;durP2;ratioP2;P2;SDS_P1;SDS_P2;PMS_P1;PMS_P2;Temp;Humidity;BMP_temperature;BMP_pressure;BME280_temperature;BME280_humidity;BME280_pressure;Samples;Min_cycle;Max_cycle;Signal;HPM_P1;HPM_P2
2022/11/09 00:01:19;;;;;;;125.53;116.72;;;;;;;14.12;71.35;101989.13;5038636;27;102376;-54
2022/11/09 00:03:47;;;;;;;121.65;113.20;;;;;;;14.11;71.47;101988.31;5023732;27;102235;-54
2022/11/09 00:06:13;;;;;;;122.45;113.93;;;;;;;14.11;71.41;101982.84;5019308;28;102301;-54
2022/11/09 00:08:41;;;;;;;121.55;112.60;;;;;;;14.12;71.54;101979.00;5022555;28;103632;-54
2022/11/09 00:11:09;;;;;;;125.60;116.72;;;;;;;14.12;71.59;101984.47;5018348;28;102341;-54
2022/11/09 00:13:37;;;;;;;121.60;113.50;;;;;;;14.10;71.42;101981.19;5022779;27;102087;-54
2022/11/09 00:16:06;;;;;;;126.75;118.25;;;;;;;14.10;71.58;101985.81;5034383;27;102348;-54
2022/11/09 00:18:34;;;;;;;119.40;111.15;;;;;;;14.12;71.30;101987.22;5025079;27;104144;-54
2022/11/09 00:21:05;;;;;;;130.30;121.30;;;;;;;14.11;71.31;101982.84;5022260;28;102474;-54
2022/11/09 00:23:31;;;;;;;115.82;107.57;;;;;;;14.11;71.58;101982.84;5028310;27;102519;-54
2022/11/09 00:25:59;;;;;;;120.05;111.53;;;;;;;14.09;71.53;101979.50;5024195;28;102381;-54
2022/11/09 00:28:26;;;;;;;124.60;115.88;;;;;;;14.10;71.53;101992.13;5017336;28;104248;-54
2022/11/09 00:30:58;;;;;;;121.95;113.53;;;;;;;14.10;71.55;101994.88;5018693;28;101893;-53
2022/11/09 00:33:26;;;;;;;124.80;116.20;;;;;;;14.09;71.45;101979.50;5016985;28;102314;-54
2022/11/09 00:35:54;;;;;;;118.40;110.40;;;;;;;14.10;71.20;101985.81;5029022;27;102313;-54
2022/11/09 00:38:21;;;;;;;122.18;113.68;;;;;;;14.08;71.26;101983.34;5023967;28;103900;-54
2022/11/09 00:40:47;;;;;;;124.60;116.07;;;;;;;14.09;71.49;101990.47;5019187;27;102522;-54
2022/11/09 00:43:14;;;;;;;124.00;115.50;;;;;;;14.08;71.42;101988.81;5033199;27;102162;-54
2022/11/09 00:45:41;;;;;;;121.90;113.70;;;;;;;14.09;71.50;101990.47;5035364;27;102229;-54
2022/11/09 00:48:10;;;;;;;128.40;119.78;;;;;;;14.09;71.30;101987.72;5033038;27;105734;-54
2022/11/09 00:50:38;;;;;;;118.65;110.53;;;;;;;14.08;71.35;101988.81;5037565;27;102422;-54
2022/11/09 00:53:05;;;;;;;127.18;118.63;;;;;;;14.10;71.42;101989.41;5035954;27;102163;-54
2022/11/09 00:55:31;;;;;;;115.53;107.72;;;;;;;14.10;71.47;101991.28;5030098;27;102564;-54
2022/11/09 00:57:58;;;;;;;129.75;121.07;;;;;;;14.09;71.46;101990.47;5028842;27;103813;-54
2022/11/09 01:00:24;;;;;;;116.53;108.68;;;;;;;14.08;71.41;101994.31;5032284;27;102541;-54
2022/11/09 01:02:51;;;;;;;119.80;111.60;;;;;;;14.08;71.15;101994.31;5030146;27;102543;-54
2022/11/09 01:05:18;;;;;;;121.85;113.65;;;;;;;14.11;71.29;101999.25;5030994;27;102473;-54
2022/11/09 01:07:46;;;;;;;123.03;114.45;;;;;;;14.09;71.49;101998.69;5024363;27;103963;-54
2022/11/09 01:10:12;;;;;;;116.05;108.05;;;;;;;14.09;71.22;101987.72;5023916;27;102520;-54
2022/11/09 01:12:39;;;;;;;123.50;115.18;;;;;;;14.08;71.48;101988.00;5018425;28;102337;-54
2022/11/09 01:15:07;;;;;;;113.18;105.38;;;;;;;14.08;71.47;101993.47;5025895;27;102429;-54
2022/11/09 01:17:34;;;;;;;118.22;110.20;;;;;;;14.08;70.99;101994.31;5019497;27;104149;-54
2022/11/09 01:20:01;;;;;;;116.80;108.85;;;;;;;14.08;71.53;101994.31;5017906;28;102152;-53
2022/11/09 01:22:28;;;;;;;122.90;114.97;;;;;;;14.08;71.76;101999.78;5018766;27;102673;-54
2022/11/09 01:24:55;;;;;;;121.55;113.55;;;;;;;14.08;71.30;101993.47;5029584;27;104741;-54
2022/11/09 01:27:22;;;;;;;122.75;114.55;;;;;;;14.07;71.40;102003.63;5035259;27;104228;-54
2022/11/09 01:29:48;;;;;;;123.88;115.50;;;;;;;14.08;71.46;101998.97;5028001;28;102287;-54
2022/11/09 01:32:15;;;;;;;118.00;109.88;;;;;;;14.07;71.43;102000.88;5036413;27;102275;-53
2022/11/09 01:34:42;;;;;;;121.88;113.97;;;;;;;14.07;71.39;101998.13;5036919;27;102887;-54
2022/11/09 01:37:08;;;;;;;133.27;124.75;;;;;;;14.07;71.38;101994.56;5034759;27;103934;-54
2022/11/09 01:39:35;;;;;;;115.38;107.63;;;;;;;14.08;71.43;101996.22;5027775;27;103061;-54
2022/11/09 01:42:03;;;;;;;115.43;107.85;;;;;;;14.07;nan;101998.13;5021968;28;102015;-54
2022/11/09 01:44:30;;;;;;;116.55;108.85;;;;;;;14.09;71.37;102006.06;5030632;27;102240;-54
2022/11/09 01:47:00;;;;;;;114.70;107.15;;;;;;;14.06;71.49;102004.69;5031942;27;104203;-54
2022/11/09 01:49:39;;;;;;;121.47;113.60;;;;;;;14.06;71.42;102012.88;5022882;28;102035;-54
2022/11/09 01:52:07;;;;;;;;;;;;;;;14.06;71.21;102012.88;5021648;28;102877;-54
2022/11/09 01:54:39;;;;;;;140.15;131.25;;;;;;;14.07;71.33;102020.03;5027075;27;102460;-54
2022/11/09 01:57:11;;;;;;;121.35;113.68;;;;;;;14.07;71.36;102021.94;5028762;27;103965;-54
2022/11/09 01:59:43;;;;;;;129.27;120.90;;;;;;;14.07;71.23;102024.69;5016843;27;102869;-54
2022/11/09 02:02:10;;;;;;;118.57;110.75;;;;;;;14.07;71.44;102031.00;5026504;27;102588;-53
2022/11/09 02:04:42;;;;;;;122.43;114.30;;;;;;;14.07;71.51;102020.03;5027174;27;102292;-54
2022/11/09 02:07:09;;;;;;;117.35;109.53;;;;;;;14.06;71.37;102029.31;5021601;27;104296;-54
2022/11/09 02:09:39;;;;;;;121.97;113.82;;;;;;;14.07;71.59;102036.47;5019070;27;102643;-54
2022/11/09 02:12:08;;;;;;;123.60;115.43;;;;;;;14.08;71.39;102032.63;5021141;27;102693;-54
2022/11/09 02:14:37;;;;;;;123.03;115.05;;;;;;;14.06;71.29;102032.06;5023239;27;102549;-54
2022/11/09 02:17:07;;;;;;;122.45;114.35;;;;;;;14.08;71.45;102031.81;5023677;27;104860;-54
2022/11/09 02:19:35;;;;;;;115.88;108.20;;;;;;;14.07;71.53;102041.94;5024647;28;102207;-54
2022/11/09 02:22:04;;;;;;;118.25;110.57;;;;;;;14.07;71.59;102030.16;5020856;27;102259;-54
2022/11/09 02:24:32;;;;;;;120.07;112.13;;;;;;;14.06;71.44;102029.31;5021755;27;102462;-54
2022/11/09 02:26:59;;;;;;;114.87;107.13;;;;;;;14.08;71.29;102026.34;5020979;27;103964;-54
2022/11/09 02:29:31;;;;;;;115.90;108.22;;;;;;;14.05;71.67;102033.16;5025433;27;102162;-54
2022/11/09 02:32:02;;;;;;;119.95;112.18;;;;;;;14.07;71.36;102027.44;5020850;28;102573;-54
2022/11/09 02:34:29;;;;;;;118.72;111.10;;;;;;;14.07;71.35;102031.00;5021150;28;102651;-54
2022/11/09 02:36:55;;;;;;;118.22;110.55;;;;;;;14.06;71.53;102021.09;5027426;27;103931;-54
2022/11/09 02:39:25;;;;;;;122.82;114.72;;;;;;;14.06;71.67;102018.38;5021238;27;102727;-54
2022/11/09 02:41:56;;;;;;;121.88;113.75;;;;;;;14.06;71.41;102014.81;5017712;28;101987;-54
2022/11/09 02:44:24;;;;;;;117.30;109.57;;;;;;;14.07;71.50;102013.75;5017854;28;102304;-53
2022/11/09 02:46:51;;;;;;;116.00;108.50;;;;;;;14.07;71.47;102019.22;5019399;28;104781;-54
2022/11/09 02:49:17;;;;;;;113.72;106.28;;;;;;;14.07;71.46;102019.22;5023809;27;102674;-54
2022/11/09 02:51:44;;;;;;;117.07;109.20;;;;;;;14.07;71.55;102020.03;5022754;27;102513;-54
2022/11/09 02:54:10;;;;;;;118.93;111.20;;;;;;;14.05;71.45;102019.47;5027555;27;102648;-54
2022/11/09 02:56:39;;;;;;;123.10;114.97;;;;;;;14.05;71.46;102027.66;5023629;27;103843;-54
2022/11/09 02:59:06;;;;;;;116.72;109.05;;;;;;;14.06;71.50;102029.31;5024579;27;102303;-54
2022/11/09 03:01:32;;;;;;;120.32;112.50;;;;;;;14.07;71.54;102031.00;5023522;27;102231;-54
2022/11/09 03:03:59;;;;;;;121.35;113.40;;;;;;;14.05;71.54;102022.19;5027002;27;102369;-53
2022/11/09 03:06:33;;;;;;;118.55;110.65;;;;;;;14.05;71.57;102024.94;5029900;27;103902;-54
2022/11/09 03:09:00;;;;;;;122.75;114.70;;;;;;;14.06;71.63;102023.84;5023263;27;103207;-53
2022/11/09 03:11:29;;;;;;;115.32;107.50;;;;;;;14.08;71.50;102029.06;5026390;27;102458;-54
2022/11/09 03:13:57;;;;;;;120.85;113.00;;;;;;;14.05;71.58;102027.66;5020045;27;102138;-53
2022/11/09 03:16:24;;;;;;;118.68;110.75;;;;;;;14.05;71.55;102016.72;5020526;27;104160;-54
2022/11/09 03:18:51;;;;;;;114.35;106.95;;;;;;;14.06;71.60;102015.63;5025520;28;102103;-54
2022/11/09 03:21:18;;;;;;;122.55;114.53;;;;;;;14.04;71.64;102020.56;5028607;27;102147;-53
2022/11/09 03:23:45;;;;;;;122.03;114.07;;;;;;;14.07;71.50;102014.56;5032921;27;102313;-53
2022/11/09 03:26:15;;;;;;;116.82;109.00;;;;;;;14.04;71.59;102017.81;5015091;28;103910;-54
2022/11/09 03:28:41;;;;;;;118.45;110.25;;;;;;;14.05;71.83;102016.72;5034875;27;102549;-54
2022/11/09 03:31:09;;;;;;;117.72;110.05;;;;;;;14.05;71.50;102016.72;5017821;28;102319;-54
2022/11/09 03:33:37;;;;;;;116.55;109.03;;;;;;;14.05;71.55;102013.97;5016000;28;102204;-54
2022/11/09 03:36:05;;;;;;;124.72;116.88;;;;;;;14.05;71.63;102019.47;5014385;28;103963;-54
2022/11/09 03:38:32;;;;;;;125.75;117.63;;;;;;;14.07;71.52;102014.56;5026200;27;102653;-54
2022/11/09 03:40:59;;;;;;;118.13;110.57;;;;;;;14.04;71.44;102020.56;5032851;27;102500;-54
2022/11/09 03:43:25;;;;;;;115.97;108.28;;;;;;;14.04;71.53;102004.13;5028896;27;102265;-54
2022/11/09 03:45:52;;;;;;;127.53;119.43;;;;;;;14.06;71.56;102012.88;5016870;27;103919;-54
2022/11/09 03:48:20;;;;;;;118.32;110.43;;;;;;;14.04;71.81;102004.13;5029133;27;102374;-54
2022/11/09 03:50:47;;;;;;;117.43;109.73;;;;;;;14.04;71.77;102003.31;5020936;27;102471;-54
2022/11/09 03:53:13;;;;;;;115.97;108.15;;;;;;;14.04;71.59;101997.84;5032821;27;102540;-53
2022/11/09 03:55:39;;;;;;;123.72;115.70;;;;;;;14.03;71.80;101998.91;5021953;27;103949;-53
2022/11/09 03:58:10;;;;;;;117.25;109.32;;;;;;;14.04;71.60;102001.41;5015428;27;102330;-54
2022/11/09 04:00:37;;;;;;;114.03;106.35;;;;;;;14.05;71.65;102005.78;5020584;27;102653;-54
2022/11/09 04:03:03;;;;;;;118.05;110.07;;;;;;;14.03;71.69;102002.50;5034976;27;102075;-54
2022/11/09 04:05:31;;;;;;;116.18;108.60;;;;;;;14.03;71.73;101999.75;5025731;27;103870;-54
2022/11/09 04:07:58;;;;;;;122.82;115.03;;;;;;;14.05;71.55;102002.22;5022312;27;102025;-54
2022/11/09 04:10:26;;;;;;;120.68;112.65;;;;;;;14.06;71.53;102001.94;5025342;27;102395;-54
2022/11/09 04:12:53;;;;;;;126.57;118.38;;;;;;;14.03;71.60;101997.00;5022680;27;102283;-54
2022/11/09 04:15:20;;;;;;;122.05;113.95;;;;;;;14.03;71.46;101998.91;5030492;28;103850;-53
2022/11/09 04:17:54;;;;;;;123.00;114.85;;;;;;;14.03;71.61;101998.91;5033847;27;102452;-54
2022/11/09 04:20:21;;;;;;;125.18;117.00;;;;;;;14.05;71.68;102005.78;5031478;27;102191;-54
2022/11/09 04:22:54;;;;;;;123.88;115.75;;;;;;;14.03;71.48;102009.84;5030078;27;102675;-54
2022/11/09 04:25:21;;;;;;;117.47;109.47;;;;;;;14.02;71.48;102014.50;5034218;27;104085;-54
2022/11/09 04:27:52;;;;;;;124.57;116.38;;;;;;;14.02;71.66;102019.97;5023970;27;102771;-54
2022/11/09 04:30:19;;;;;;;120.95;112.90;;;;;;;14.04;71.49;102014.25;5027126;27;102297;-54
2022/11/09 04:32:45;;;;;;;122.55;114.57;;;;;;;14.04;71.63;102019.72;5024286;27;102619;-54
2022/11/09 04:35:12;;;;;;;127.55;119.40;;;;;;;14.03;71.74;102012.59;5024299;28;104436;-54
2022/11/09 04:37:38;;;;;;;129.25;121.13;;;;;;;14.02;71.47;102019.97;5020355;27;102185;-53
2022/11/09 04:40:08;;;;;;;128.45;120.15;;;;;;;14.01;71.61;102015.59;5034166;27;102458;-54
2022/11/09 04:42:35;;;;;;;125.15;116.82;;;;;;;14.01;71.60;102026.56;5025778;27;102225;-54
2022/11/09 04:45:02;;;;;;;123.82;115.72;;;;;;;14.01;71.71;102029.28;5022842;28;103967;-54
2022/11/09 04:47:28;;;;;;;119.28;111.35;;;;;;;14.02;71.73;102030.94;5036672;27;102118;-54
2022/11/09 04:49:55;;;;;;;126.70;118.25;;;;;;;14.01;71.78;102037.50;5022863;27;102475;-54
2022/11/09 04:52:22;;;;;;;125.13;116.75;;;;;;;14.02;71.46;102033.66;5019377;28;102031;-54
2022/11/09 04:54:49;;;;;;;120.97;112.50;;;;;;;14.01;71.46;102042.97;5034535;27;103758;-54
2022/11/09 04:57:17;;;;;;;129.68;121.03;;;;;;;14.01;71.52;102042.97;5025927;27;102371;-54
2022/11/09 04:59:44;;;;;;;121.22;112.97;;;;;;;14.01;71.47;102042.97;5023291;27;102138;-54
2022/11/09 05:02:10;;;;;;;119.63;111.57;;;;;;;14.01;71.64;102048.44;5032102;27;102338;-54
2022/11/09 05:04:37;;;;;;;121.35;113.25;;;;;;;14.02;71.64;102050.09;5019088;27;103887;-54
2022/11/09 05:07:04;;;;;;;121.45;113.28;;;;;;;14.01;71.67;102053.91;5023017;27;102176;-54
2022/11/09 05:09:31;;;;;;;121.40;113.43;;;;;;;14.03;71.64;102050.91;5021237;28;102587;-53
2022/11/09 05:11:57;;;;;;;132.20;123.55;;;;;;;14.01;71.56;102051.19;5025361;27;101960;-53
2022/11/09 05:14:25;;;;;;;128.73;120.07;;;;;;;14.01;71.62;102064.88;5030855;27;103833;-54
2022/11/09 05:16:52;;;;;;;121.28;113.05;;;;;;;14.01;71.73;102064.88;5033428;27;102309;-54
2022/11/09 05:19:18;;;;;;;119.20;111.18;;;;;;;14.04;71.54;102067.09;5018636;27;102207;-54
2022/11/09 05:21:44;;;;;;;119.97;111.93;;;;;;;14.02;71.46;102074.72;5021417;27;102237;-54
2022/11/09 05:24:11;;;;;;;125.38;116.72;;;;;;;14.02;71.27;102074.72;5029668;27;103877;-54
2022/11/09 05:26:40;;;;;;;121.50;113.28;;;;;;;14.03;71.83;102084.59;5019887;27;102406;-54
2022/11/09 05:29:09;;;;;;;122.03;114.13;;;;;;;14.03;71.63;102081.88;5016769;27;102463;-54
2022/11/09 05:31:38;;;;;;;121.07;112.80;;;;;;;14.03;71.70;102086.50;5036238;27;102432;-54
2022/11/09 05:34:05;;;;;;;122.72;114.32;;;;;;;14.02;71.79;102080.19;5029181;27;104041;-53
2022/11/09 05:36:32;;;;;;;114.68;106.97;;;;;;;14.04;71.70;102090.91;5023096;27;102563;-54
2022/11/09 05:38:59;;;;;;;123.25;115.03;;;;;;;14.02;71.63;102088.41;5022481;27;102383;-54
2022/11/09 05:41:26;;;;;;;121.93;113.72;;;;;;;14.01;71.74;102084.03;5034022;27;102366;-54
2022/11/09 05:43:54;;;;;;;120.75;112.65;;;;;;;14.01;71.71;102094.97;5027503;27;104630;-54
2022/11/09 05:46:20;;;;;;;125.05;116.68;;;;;;;14.01;71.70;102092.25;5029579;27;102530;-53
2022/11/09 05:48:48;;;;;;;119.80;111.65;;;;;;;14.02;71.93;102093.06;5030910;28;102176;-53
2022/11/09 05:51:15;;;;;;;126.70;118.50;;;;;;;14.02;71.72;102093.06;5021425;27;102556;-55
2022/11/09 05:53:41;;;;;;;119.57;111.45;;;;;;;14.02;71.64;102093.88;5033227;27;104091;-54
2022/11/09 05:56:11;;;;;;;124.30;116.15;;;;;;;14.03;71.64;102100.19;5034050;27;102483;-54
2022/11/09 05:58:40;;;;;;;122.05;113.97;;;;;;;14.03;71.61;102105.66;5019046;28;102190;-54
2022/11/09 06:01:08;;;;;;;126.05;117.68;;;;;;;14.02;71.42;102106.75;5036074;27;102115;-54
2022/11/09 06:03:37;;;;;;;115.60;107.82;;;;;;;14.02;71.84;102115.78;5032290;27;103878;-54
2022/11/09 06:06:06;;;;;;;121.78;113.65;;;;;;;14.04;71.81;102118.28;5017469;28;102179;-54
2022/11/09 06:08:33;;;;;;;127.72;119.53;;;;;;;14.02;71.52;102115.78;5024492;28;102174;-54
2022/11/09 06:11:04;;;;;;;124.93;116.68;;;;;;;14.04;71.48;102116.38;5035845;27;102395;-54
2022/11/09 06:13:31;;;;;;;118.53;110.60;;;;;;;14.01;71.62;102125.09;5017289;27;103914;-54
2022/11/09 06:16:02;;;;;;;125.72;117.53;;;;;;;14.02;72.01;102121.25;5024655;27;102545;-54
2022/11/09 06:18:30;;;;;;;115.32;107.68;;;;;;;14.03;71.86;102131.16;5022422;27;102335;-54
2022/11/09 06:20:59;;;;;;;117.40;109.83;;;;;;;14.05;71.66;102126.22;5026822;27;102708;-54
2022/11/09 06:23:28;;;;;;;122.97;115.10;;;;;;;14.04;71.82;102118.28;5026972;27;103974;-54
2022/11/09 06:25:56;;;;;;;121.43;113.57;;;;;;;14.04;71.71;102130.03;5031282;27;104261;-53
2022/11/09 06:28:23;;;;;;;124.43;116.47;;;;;;;14.05;71.78;102123.47;5027431;27;102731;-54
2022/11/09 06:30:50;;;;;;;120.25;112.43;;;;;;;14.04;71.58;102132.78;5028713;27;102392;-54
2022/11/09 06:33:17;;;;;;;112.93;105.35;;;;;;;14.03;71.86;102128.41;5025691;27;103939;-54
2022/11/09 06:35:44;;;;;;;115.10;107.60;;;;;;;14.03;71.61;102131.16;5026622;27;103585;-54
2022/11/09 06:38:10;;;;;;;116.32;108.78;;;;;;;14.00;71.76;102134.41;5027195;27;102148;-53
2022/11/09 06:40:38;;;;;;;119.00;111.07;;;;;;;14.02;72.19;102126.72;5030121;27;102284;-53
2022/11/09 06:43:05;;;;;;;121.78;113.70;;;;;;;14.01;71.98;102119.63;5016824;27;103866;-53
2022/11/09 06:45:33;;;;;;;116.57;109.20;;;;;;;14.00;72.20;102131.66;5021803;27;102666;-53
2022/11/09 06:48:02;;;;;;;110.25;102.97;;;;;;;14.01;71.75;102133.31;5035549;27;102201;-53
2022/11/09 06:50:31;;;;;;;122.70;114.78;;;;;;;14.00;71.26;102128.91;5032165;27;102234;-54
2022/11/09 06:52:59;;;;;;;111.80;104.68;;;;;;;14.02;71.59;102117.69;5016662;28;103928;-53
2022/11/09 06:55:26;;;;;;;122.55;114.53;;;;;;;14.03;71.50;102122.06;5028037;28;101877;-53
2022/11/09 06:57:54;;;;;;;116.85;109.55;;;;;;;14.03;71.73;102133.88;5025765;28;102162;-53
2022/11/09 07:00:22;;;;;;;122.80;114.85;;;;;;;14.02;71.62;102132.22;5028413;27;102691;-54
2022/11/09 07:02:49;;;;;;;115.18;107.55;;;;;;;14.04;71.65;102130.03;5021144;27;102976;-54
2022/11/09 07:05:17;;;;;;;117.70;110.30;;;;;;;14.03;71.60;102125.66;5024232;27;102432;-53
2022/11/09 07:07:43;;;;;;;121.10;113.28;;;;;;;14.04;71.78;102119.09;5018609;27;102214;-53
2022/11/09 07:10:11;;;;;;;116.68;109.03;;;;;;;14.04;71.63;102119.09;5023695;27;102107;-53
2022/11/09 07:12:38;;;;;;;115.57;108.20;;;;;;;14.05;71.62;102128.94;5031827;27;104272;-53
2022/11/09 07:15:07;;;;;;;110.55;103.45;;;;;;;14.07;71.83;102123.22;5021704;27;102179;-53
2022/11/09 07:17:35;;;;;;;117.10;109.80;;;;;;;14.07;72.02;102124.06;5025341;27;102522;-54
2022/11/09 07:20:03;;;;;;;121.00;113.43;;;;;;;14.07;72.08;102118.59;5030377;27;102215;-54
2022/11/09 07:22:29;;;;;;;113.20;105.90;;;;;;;14.07;72.13;102124.06;5022729;27;104146;-54
2022/11/09 07:24:56;;;;;;;118.60;111.13;;;;;;;14.09;72.48;102116.41;5015910;28;102233;-53
2022/11/09 07:27:23;;;;;;;117.22;109.88;;;;;;;14.11;72.19;102114.22;5015543;27;102250;-54
2022/11/09 07:29:49;;;;;;;113.03;105.70;;;;;;;14.11;71.91;102119.72;5021602;27;102470;-53
2022/11/09 07:32:17;;;;;;;107.93;100.93;;;;;;;14.12;72.09;102115.88;5016071;28;103842;-53
2022/11/09 07:34:46;;;;;;;111.97;104.90;;;;;;;14.14;71.77;102118.38;5023396;27;102166;-54
2022/11/09 07:37:13;;;;;;;115.35;107.95;;;;;;;14.13;71.86;102112.03;5016443;28;102059;-54
2022/11/09 07:39:40;;;;;;;115.55;108.25;;;;;;;14.13;71.74;102112.03;5028898;27;102064;-53
2022/11/09 07:42:07;;;;;;;110.03;103.28;;;;;;;14.16;71.39;102111.53;5024733;28;103919;-53
2022/11/09 07:44:34;;;;;;;104.72;98.00;;;;;;;14.16;72.05;102114.25;5017895;27;102087;-54
2022/11/09 07:47:00;;;;;;;111.00;103.97;;;;;;;14.19;71.18;102108.28;5030130;28;101960;-53
2022/11/09 07:49:28;;;;;;;123.80;116.07;;;;;;;14.21;71.40;102123.59;5031927;27;105260;-54
2022/11/09 07:51:54;;;;;;;116.55;109.25;;;;;;;14.21;71.40;102118.13;5030919;27;103887;-54
2022/11/09 07:54:21;;;;;;;109.10;102.22;;;;;;;14.21;71.38;102109.91;5023053;27;102383;-53
2022/11/09 07:56:48;;;;;;;112.07;105.00;;;;;;;14.20;71.72;102109.09;5029414;28;102303;-53
2022/11/09 07:59:14;;;;;;;112.63;105.55;;;;;;;14.22;71.51;102114.31;5026697;27;102116;-54
2022/11/09 08:01:41;;;;;;;114.57;107.45;;;;;;;14.23;71.59;102107.75;5022862;27;104013;-54
2022/11/09 08:04:07;;;;;;;112.82;105.88;;;;;;;14.25;71.20;102111.06;5038360;27;102075;-54
2022/11/09 08:06:35;;;;;;;111.20;104.13;;;;;;;14.26;71.30;102126.41;5022094;27;102096;-53
2022/11/09 08:09:04;;;;;;;120.75;113.10;;;;;;;14.25;71.23;102113.81;5023042;27;102240;-54
2022/11/09 08:11:30;;;;;;;115.65;108.40;;;;;;;14.25;71.20;102114.63;5022669;27;103917;-55
2022/11/09 08:13:57;;;;;;;110.50;103.63;;;;;;;14.26;71.29;102112.72;5028097;28;102461;-53
2022/11/09 08:16:24;;;;;;;113.53;106.45;;;;;;;14.26;71.34;102116.25;5026632;27;101999;-54
2022/11/09 08:18:51;;;;;;;119.35;112.00;;;;;;;14.26;71.47;102112.72;5027275;27;103855;-54
2022/11/09 08:21:18;;;;;;;114.95;107.82;;;;;;;14.29;71.73;102103.97;5025376;28;104024;-54
2022/11/09 08:23:46;;;;;;;112.93;105.80;;;;;;;14.28;71.18;102113.25;5022135;27;102379;-54
2022/11/09 08:26:13;;;;;;;115.15;108.00;;;;;;;14.30;71.61;102108.34;5032058;27;102214;-53
2022/11/09 08:28:40;;;;;;;112.57;105.85;;;;;;;14.29;71.42;102109.44;5025346;27;102178;-53
2022/11/09 08:31:07;;;;;;;110.57;103.72;;;;;;;14.32;71.02;102114.41;5017777;27;103923;-54
2022/11/09 08:33:36;;;;;;;111.95;105.00;;;;;;;14.31;71.30;102112.72;5026064;27;102364;-54
2022/11/09 08:36:08;;;;;;;107.40;100.82;;;;;;;14.32;71.12;102104.28;5022015;27;101997;-54
2022/11/09 08:38:35;;;;;;;114.10;107.13;;;;;;;14.35;71.07;102108.38;5026742;27;102410;-53
2022/11/09 08:41:04;;;;;;;115.80;108.68;;;;;;;14.34;71.08;102113.03;5034364;27;103147;-53
2022/11/09 08:43:31;;;;;;;109.35;102.53;;;;;;;14.36;70.75;102112.78;5016591;28;102195;-54
2022/11/09 08:45:57;;;;;;;111.88;104.97;;;;;;;14.35;70.93;102109.22;5035086;27;102438;-54
2022/11/09 08:48:24;;;;;;;109.95;103.30;;;;;;;14.35;70.90;102109.22;5021571;27;102236;-54
2022/11/09 08:50:53;;;;;;;108.50;101.63;;;;;;;14.37;70.78;102107.03;5026851;27;103971;-53
2022/11/09 08:53:19;;;;;;;119.05;111.80;;;;;;;14.38;70.51;102096.91;5031378;27;102737;-54
2022/11/09 08:55:50;;;;;;;105.15;98.65;;;;;;;14.39;70.51;102101.31;5019461;28;102301;-53
2022/11/09 08:58:18;;;;;;;107.43;101.05;;;;;;;14.40;70.59;102101.03;5035468;27;102601;-53
2022/11/09 09:00:45;;;;;;;105.57;99.03;;;;;;;14.41;70.44;102099.13;5023508;28;103918;-54
2022/11/09 09:03:12;;;;;;;115.05;108.20;;;;;;;14.41;70.66;102101.84;5026137;27;102457;-54
2022/11/09 09:05:40;;;;;;;104.97;98.57;;;;;;;14.40;70.91;102097.47;5025711;27;102497;-54
2022/11/09 09:08:07;;;;;;;107.80;101.22;;;;;;;14.39;70.69;102095.84;5025341;28;102150;-53
2022/11/09 09:10:35;;;;;;;103.93;97.60;;;;;;;14.41;71.35;102101.84;5031855;27;104071;-53
2022/11/09 09:13:02;;;;;;;111.18;104.40;;;;;;;14.41;71.08;102096.38;5026682;27;102305;-53
2022/11/09 09:15:30;;;;;;;115.13;108.20;;;;;;;14.43;71.25;102099.69;5025977;27;102536;-53
2022/11/09 09:17:59;;;;;;;110.55;103.97;;;;;;;14.42;71.37;102098.03;5030242;27;102527;-53
2022/11/09 09:20:26;;;;;;;108.28;101.72;;;;;;;14.43;71.07;102099.69;5020954;27;103766;-53
2022/11/09 09:22:53;;;;;;;109.00;102.50;;;;;;;14.45;70.85;102092.03;5023513;27;102451;-53
2022/11/09 09:25:19;;;;;;;115.72;108.78;;;;;;;14.45;70.61;102093.94;5024265;27;102109;-54
2022/11/09 09:27:46;;;;;;;109.50;102.95;;;;;;;14.47;70.29;102092.59;5033379;27;102371;-53
2022/11/09 09:30:13;;;;;;;110.38;103.70;;;;;;;14.46;70.26;102085.47;5029568;27;103944;-54
2022/11/09 09:32:43;;;;;;;105.18;98.70;;;;;;;14.45;70.10;102081.06;5026957;27;102103;-53
2022/11/09 09:35:09;;;;;;;109.07;102.57;;;;;;;14.47;70.38;102083.56;5023338;27;102181;-53
2022/11/09 09:37:36;;;;;;;109.63;103.10;;;;;;;14.47;70.24;102089.03;5024661;27;102241;-54
2022/11/09 09:40:04;;;;;;;101.38;95.05;;;;;;;14.47;70.02;102078.91;5023262;27;103925;-54
2022/11/09 09:42:35;;;;;;;101.93;95.85;;;;;;;14.46;70.04;102080.00;5024502;27;102411;-53
2022/11/09 09:45:09;;;;;;;104.88;98.55;;;;;;;14.46;70.24;102080.00;5032160;27;102298;-53
2022/11/09 09:47:48;;;;;;;100.97;94.90;;;;;;;14.45;70.22;102081.06;5026839;27;102084;-54
2022/11/09 09:50:20;;;;;;;98.68;92.75;;;;;;;14.46;70.43;102082.75;5026176;27;103961;-54
2022/11/09 09:52:52;;;;;;;103.35;97.28;;;;;;;14.45;70.12;102078.31;5017528;27;102158;-54
2022/11/09 09:55:25;;;;;;;99.78;93.78;;;;;;;14.46;70.28;102081.88;5021872;27;102411;-53
2022/11/09 09:57:53;;;;;;;100.85;94.63;;;;;;;14.46;70.10;102073.66;5022503;27;102424;-54
2022/11/09 10:00:23;;;;;;;104.25;98.03;;;;;;;14.46;70.16;102077.25;5024753;27;103838;-54
2022/11/09 10:02:52;;;;;;;100.80;94.70;;;;;;;14.45;70.24;102072.84;5017680;27;102752;-54
2022/11/09 10:05:26;;;;;;;100.32;94.38;;;;;;;14.45;70.05;102067.38;5017389;27;102774;-53
2022/11/09 10:08:03;;;;;;;99.10;93.25;;;;;;;14.44;69.96;102073.94;5019631;27;102204;-53
2022/11/09 10:10:43;;;;;;;99.38;93.40;;;;;;;14.43;69.57;102080.53;5018352;27;104231;-54
2022/11/09 10:13:50;;;;;;;90.72;85.22;;;;;;;14.43;69.51;102077.78;5028900;27;102705;-54
2022/11/09 10:16:25;;;;;;;93.50;87.82;;;;;;;14.44;68.96;102073.94;5023815;27;102573;-54
2022/11/09 10:19:27;;;;;;;92.15;86.38;;;;;;;14.42;69.03;102062.41;5017594;27;102983;-53
2022/11/09 10:22:02;;;;;;;92.97;87.32;;;;;;;14.43;69.33;102066.81;5018774;27;106457;-54
2022/11/09 10:24:39;;;;;;;95.47;89.32;;;;;;;14.41;69.05;102063.50;5021116;28;102460;-54
2022/11/09 10:27:26;;;;;;;92.38;86.88;;;;;;;14.43;69.03;102061.34;5016958;27;102757;-54
2022/11/09 10:29:53;;;;;;;98.43;92.65;;;;;;;14.42;69.63;102054.19;5019059;27;102667;-53
2022/11/09 10:32:21;;;;;;;105.40;99.15;;;;;;;14.42;69.57;102059.69;5017010;27;104195;-54
2022/11/09 10:34:53;;;;;;;102.88;96.88;;;;;;;14.42;69.60;102048.72;5018575;28;102124;-54
2022/11/09 10:37:29;;;;;;;96.60;90.75;;;;;;;14.40;69.47;102057.22;5019520;27;102330;-53
2022/11/09 10:40:02;;;;;;;103.13;97.10;;;;;;;14.38;69.63;102053.91;5027453;27;102195;-54
2022/11/09 10:42:31;;;;;;;100.65;94.63;;;;;;;14.37;69.23;102052.25;5026149;27;104329;-54
2022/11/09 10:45:06;;;;;;;93.30;87.50;;;;;;;14.37;68.54;102044.03;5020908;27;101968;-54
2022/11/09 10:47:46;;;;;;;92.45;86.95;;;;;;;14.36;68.61;102038.84;5031833;27;102449;-54
2022/11/09 10:50:21;;;;;;;89.07;83.70;;;;;;;14.37;68.50;102040.47;5019467;27;102516;-54
2022/11/09 10:52:50;;;;;;;87.20;82.15;;;;;;;14.36;68.54;102041.59;5021835;27;104107;-53
2022/11/09 10:55:23;;;;;;;95.47;89.47;;;;;;;14.34;68.83;102041.00;5031450;27;102117;-54